createdAt,value
2022-12-14T00:00:31.541Z,17.33
2022-12-14T00:02:52.967Z,18.17
2022-12-14T00:05:15.727Z,17.83
2022-12-14T00:07:38.289Z,19.47
2022-12-14T00:09:59.392Z,19.10
2022-12-14T00:12:20.886Z,17.83
2022-12-14T00:14:42.131Z,15.43
2022-12-14T00:17:03.557Z,19.43
2022-12-14T00:19:24.913Z,16.87
2022-12-14T00:21:46.368Z,18.87
2022-12-14T00:24:08.746Z,17.47
2022-12-14T00:26:31.062Z,17.43
2022-12-14T00:28:53.786Z,16.70
2022-12-14T00:31:15.067Z,19.60
2022-12-14T00:33:36.216Z,19.23
2022-12-14T00:35:57.374Z,21.57
2022-12-14T00:38:18.568Z,18.10
2022-12-14T00:40:41.338Z,16.90
2022-12-14T00:43:02.578Z,17.93
2022-12-14T00:45:24.112Z,20.70
2022-12-14T00:47:45.497Z,17.43
2022-12-14T00:50:07.259Z,17.30
2022-12-14T00:52:28.779Z,17.27
2022-12-14T00:54:49.978Z,16.30
2022-12-14T00:57:12.591Z,16.93
2022-12-14T00:59:33.798Z,16.10
2022-12-14T01:01:54.897Z,19.73
2022-12-14T01:04:19.505Z,16.67
2022-12-14T01:06:40.888Z,17.97
2022-12-14T01:09:02.085Z,16.37
2022-12-14T01:11:23.645Z,19.47
2022-12-14T01:13:49.688Z,17.37
2022-12-14T01:16:13.190Z,18.03
2022-12-14T01:18:35.658Z,17.53
2022-12-14T01:20:56.489Z,20.13
2022-12-14T01:23:17.950Z,19.67
2022-12-14T01:25:39.116Z,19.67
2022-12-14T01:28:00.150Z,19.07
2022-12-14T01:30:22.723Z,19.87
2022-12-14T01:32:43.900Z,18.20
2022-12-14T01:35:05.418Z,18.73
2022-12-14T01:37:26.433Z,19.40
2022-12-14T01:39:48.058Z,19.57
2022-12-14T01:42:11.914Z,17.77
2022-12-14T01:44:51.735Z,20.83
2022-12-14T01:47:18.613Z,20.90
2022-12-14T01:49:41.541Z,19.33
2022-12-14T01:52:08.055Z,23.47
2022-12-14T01:54:31.973Z,19.63
2022-12-14T01:56:53.388Z,18.63
2022-12-14T01:59:16.959Z,19.17
2022-12-14T02:01:38.426Z,19.50
2022-12-14T02:04:02.161Z,18.57
2022-12-14T02:06:26.266Z,21.23
2022-12-14T02:08:48.343Z,19.27
2022-12-14T02:11:09.525Z,19.87
2022-12-14T02:13:32.936Z,21.07
2022-12-14T02:15:54.181Z,21.07
2022-12-14T02:18:17.973Z,22.07
2022-12-14T02:20:45.123Z,20.00
2022-12-14T02:23:24.494Z,20.43
2022-12-14T02:26:12.851Z,19.73
2022-12-14T02:28:57.964Z,21.73
2022-12-14T02:31:24.745Z,20.30
2022-12-14T02:33:49.142Z,19.13
2022-12-14T02:36:14.345Z,20.13
2022-12-14T02:38:43.787Z,19.67
2022-12-14T02:41:09.707Z,19.90
2022-12-14T02:43:32.805Z,20.13
2022-12-14T02:45:57.104Z,19.00
2022-12-14T02:48:21.500Z,20.73
2022-12-14T02:50:44.656Z,21.90
2022-12-14T02:53:10.968Z,19.77
2022-12-14T02:55:34.899Z,20.77
2022-12-14T02:57:59.203Z,20.20
2022-12-14T03:00:20.638Z,20.83
2022-12-14T03:02:43.131Z,21.30
2022-12-14T03:05:06.070Z,21.03
2022-12-14T03:07:31.455Z,20.30
2022-12-14T03:09:53.507Z,19.57
2022-12-14T03:12:16.733Z,21.17
2022-12-14T03:14:40.852Z,21.60
2022-12-14T03:17:05.208Z,21.47
2022-12-14T03:19:28.067Z,20.60
2022-12-14T03:21:52.697Z,20.30
2022-12-14T03:24:17.630Z,23.83
2022-12-14T03:26:47.050Z,21.10
2022-12-14T03:29:11.283Z,23.03
2022-12-14T03:31:33.652Z,20.73
2022-12-14T03:33:55.720Z,21.87
2022-12-14T03:36:18.862Z,24.60
2022-12-14T03:38:42.505Z,26.87
2022-12-14T03:41:06.311Z,22.80
2022-12-14T03:43:32.837Z,26.03
2022-12-14T03:45:58.835Z,20.63
2022-12-14T03:48:26.436Z,24.20
2022-12-14T03:50:49.846Z,22.97
2022-12-14T03:53:13.185Z,24.67
2022-12-14T03:55:38.966Z,22.00
2022-12-14T03:58:13.856Z,23.10
2022-12-14T04:00:38.371Z,20.90
2022-12-14T04:03:03.643Z,24.30
2022-12-14T04:05:27.959Z,22.47
2022-12-14T04:07:52.170Z,22.40
2022-12-14T04:10:28.259Z,23.43
2022-12-14T04:13:08.726Z,23.90
2022-12-14T04:15:50.401Z,24.50
2022-12-14T04:18:32.348Z,23.97
2022-12-14T04:20:55.679Z,21.93
2022-12-14T04:23:39.216Z,23.47
2022-12-14T04:26:05.383Z,25.50
2022-12-14T04:28:47.430Z,24.57
2022-12-14T04:31:10.429Z,24.63
2022-12-14T04:33:48.817Z,24.97
2022-12-14T04:36:10.515Z,25.27
2022-12-14T04:38:34.695Z,24.17
2022-12-14T04:40:57.141Z,23.93
2022-12-14T04:43:20.744Z,24.30
2022-12-14T04:45:47.754Z,27.83
2022-12-14T04:48:10.411Z,24.87
2022-12-14T04:50:35.778Z,24.53
2022-12-14T04:52:59.529Z,24.50
2022-12-14T04:55:25.146Z,23.90
2022-12-14T04:57:49.395Z,23.80
2022-12-14T05:00:11.176Z,25.23
2022-12-14T05:02:37.339Z,25.67
2022-12-14T05:05:01.785Z,22.33
2022-12-14T05:07:29.716Z,24.00
2022-12-14T05:09:54.958Z,24.80
2022-12-14T05:12:17.795Z,24.03
2022-12-14T05:14:41.352Z,23.23
2022-12-14T05:17:08.461Z,25.83
2022-12-14T05:19:31.550Z,25.93
2022-12-14T05:21:52.625Z,24.13
2022-12-14T05:24:14.055Z,25.60
2022-12-14T05:26:35.529Z,24.90
2022-12-14T05:28:57.003Z,24.10
2022-12-14T05:31:18.054Z,23.57
2022-12-14T05:33:39.458Z,24.60
2022-12-14T05:36:02.157Z,25.90
2022-12-14T05:38:23.388Z,24.03
2022-12-14T05:40:44.893Z,24.97
2022-12-14T05:43:06.608Z,25.43
2022-12-14T05:45:27.505Z,24.67
2022-12-14T05:47:48.862Z,25.47
2022-12-14T05:50:10.172Z,23.90
2022-12-14T05:52:32.772Z,24.73
2022-12-14T05:54:55.542Z,27.70
2022-12-14T05:57:18.358Z,25.80
2022-12-14T05:59:39.740Z,28.00
2022-12-14T06:02:01.208Z,27.13
2022-12-14T06:04:22.441Z,24.00
2022-12-14T06:06:43.726Z,23.27
2022-12-14T06:09:08.106Z,26.57
2022-12-14T06:11:29.465Z,27.03
2022-12-14T06:13:51.038Z,25.87
2022-12-14T06:16:13.438Z,28.20
2022-12-14T06:18:34.875Z,25.57
2022-12-14T06:20:57.211Z,27.63
2022-12-14T06:23:18.482Z,25.13
2022-12-14T06:25:41.012Z,25.93
2022-12-14T06:28:02.943Z,26.37
2022-12-14T06:30:24.264Z,27.77
2022-12-14T06:32:45.495Z,29.37
2022-12-14T06:35:07.618Z,27.57
2022-12-14T06:37:28.583Z,26.70
2022-12-14T06:39:54.303Z,26.93
2022-12-14T06:42:17.311Z,25.57
2022-12-14T06:44:38.482Z,29.53
2022-12-14T06:46:59.746Z,27.53
2022-12-14T06:49:20.870Z,26.60
2022-12-14T06:51:42.013Z,27.23
2022-12-14T06:54:03.121Z,25.63
2022-12-14T06:56:25.793Z,27.67
2022-12-14T06:58:48.572Z,25.53
2022-12-14T07:01:10.379Z,29.33
2022-12-14T07:03:31.864Z,26.17
2022-12-14T07:05:56.680Z,27.60
2022-12-14T07:08:17.673Z,30.77
2022-12-14T07:10:39.030Z,31.20
2022-12-14T07:13:00.651Z,28.53
2022-12-14T07:15:22.925Z,27.53
2022-12-14T07:17:44.155Z,29.03
2022-12-14T07:20:06.886Z,29.80
2022-12-14T07:22:28.168Z,31.80
2022-12-14T07:24:49.878Z,28.53
2022-12-14T07:27:11.185Z,30.13
2022-12-14T07:29:34.868Z,30.80
2022-12-14T07:31:57.457Z,29.17
2022-12-14T07:34:18.806Z,30.70
2022-12-14T07:36:40.062Z,32.43
2022-12-14T07:39:01.258Z,28.00
2022-12-14T07:41:23.809Z,30.57
2022-12-14T07:43:45.109Z,31.10
2022-12-14T07:46:12.601Z,32.00
2022-12-14T07:48:35.661Z,29.77
2022-12-14T07:51:01.895Z,32.37
2022-12-14T07:53:23.015Z,30.57
2022-12-14T07:55:44.191Z,30.97
2022-12-14T07:58:05.406Z,32.20
2022-12-14T08:00:26.653Z,33.67
2022-12-14T08:02:47.898Z,30.93
2022-12-14T08:05:12.762Z,31.17
2022-12-14T08:07:34.682Z,29.23
2022-12-14T08:09:55.843Z,31.63
2022-12-14T08:12:17.083Z,30.87
2022-12-14T08:14:38.407Z,30.00
2022-12-14T08:16:59.581Z,30.80
2022-12-14T08:19:21.435Z,31.50
2022-12-14T08:21:45.352Z,30.43
2022-12-14T08:24:06.603Z,31.60
2022-12-14T08:26:33.525Z,30.90
2022-12-14T08:28:56.690Z,30.13
2022-12-14T08:31:19.523Z,29.40
2022-12-14T08:33:41.231Z,29.70
2022-12-14T08:36:06.351Z,31.00
2022-12-14T08:38:28.532Z,29.53
2022-12-14T08:40:50.113Z,31.83
2022-12-14T08:43:11.349Z,31.20
2022-12-14T08:45:32.449Z,30.77
2022-12-14T08:47:53.831Z,34.47
2022-12-14T08:50:15.297Z,33.90
2022-12-14T08:52:36.539Z,44.63
2022-12-14T08:54:59.976Z,47.00
2022-12-14T08:57:21.067Z,36.23
2022-12-14T09:02:23.882Z,31.70
2022-12-14T09:04:44.725Z,32.77
2022-12-14T09:07:05.979Z,33.23
2022-12-14T09:09:27.144Z,34.90
2022-12-14T09:11:49.809Z,31.23
2022-12-14T09:14:11.143Z,36.57
2022-12-14T09:16:32.430Z,32.33
2022-12-14T09:18:54.032Z,35.77
2022-12-14T09:21:15.501Z,33.43
2022-12-14T09:23:37.236Z,32.30
2022-12-14T09:26:02.513Z,34.13
2022-12-14T09:28:25.074Z,33.53
2022-12-14T09:30:46.202Z,33.20
2022-12-14T09:33:07.363Z,39.00
2022-12-14T09:35:28.558Z,35.30
2022-12-14T09:37:49.839Z,36.87
2022-12-14T09:40:11.814Z,35.83
2022-12-14T09:42:50.493Z,39.03
2022-12-14T09:45:18.012Z,38.40
2022-12-14T09:47:44.005Z,38.00
2022-12-14T09:50:06.626Z,35.03
2022-12-14T09:52:34.567Z,36.83
2022-12-14T09:54:56.435Z,37.97
2022-12-14T09:57:22.164Z,37.37
2022-12-14T09:59:44.115Z,38.07
2022-12-14T10:02:35.990Z,39.33
2022-12-14T10:05:05.181Z,39.67
2022-12-14T10:07:34.231Z,38.63
2022-12-14T10:09:57.554Z,40.00
2022-12-14T10:12:26.321Z,40.60
2022-12-14T10:14:56.032Z,39.37
2022-12-14T10:17:18.551Z,39.10
2022-12-14T10:19:42.559Z,39.00
2022-12-14T10:22:07.422Z,43.33
2022-12-14T10:24:33.181Z,39.93
2022-12-14T10:26:55.656Z,39.10
2022-12-14T10:29:20.185Z,41.10
2022-12-14T10:31:45.730Z,41.07
2022-12-14T10:34:13.759Z,40.83
2022-12-14T10:36:38.647Z,41.57
2022-12-14T10:39:02.159Z,42.27
2022-12-14T10:41:26.627Z,41.80
2022-12-14T10:43:52.011Z,37.80
2022-12-14T10:46:18.273Z,40.70
2022-12-14T10:48:42.759Z,41.50
2022-12-14T10:51:06.299Z,39.37
2022-12-14T10:53:29.580Z,41.50
2022-12-14T10:55:54.459Z,41.17
2022-12-14T10:58:15.661Z,42.30
2022-12-14T11:00:37.176Z,41.23
2022-12-14T11:02:58.975Z,41.23
2022-12-14T11:05:24.724Z,37.67
2022-12-14T11:07:49.709Z,39.90
2022-12-14T11:10:16.008Z,37.90
2022-12-14T11:12:38.948Z,39.00
2022-12-14T11:15:01.179Z,41.07
2022-12-14T11:17:33.572Z,37.37
2022-12-14T11:20:04.163Z,37.30
2022-12-14T11:22:25.580Z,34.50
2022-12-14T11:24:47.653Z,40.20
2022-12-14T11:27:11.101Z,38.07
2022-12-14T11:29:35.363Z,41.90
2022-12-14T11:31:56.443Z,40.50
2022-12-14T11:34:22.714Z,41.30
2022-12-14T11:36:43.800Z,40.73
2022-12-14T11:39:06.195Z,40.67
2022-12-14T11:41:30.288Z,41.03
2022-12-14T11:44:01.937Z,39.77
2022-12-14T11:46:44.753Z,42.03
2022-12-14T11:49:19.536Z,46.37
2022-12-14T11:51:54.504Z,44.47
2022-12-14T11:54:16.603Z,44.77
2022-12-14T11:56:37.797Z,43.80
2022-12-14T11:58:58.682Z,42.00
2022-12-14T12:01:21.282Z,41.60
2022-12-14T12:03:46.768Z,40.47
2022-12-14T12:06:10.034Z,48.40
2022-12-14T12:08:33.521Z,46.53
2022-12-14T12:11:01.902Z,46.33
2022-12-14T12:13:25.831Z,44.40
2022-12-14T12:15:50.095Z,40.93
2022-12-14T12:18:16.235Z,41.13
2022-12-14T12:20:41.903Z,43.37
2022-12-14T12:23:05.625Z,49.97
2022-12-14T12:25:33.553Z,44.70
2022-12-14T12:28:00.295Z,51.27
2022-12-14T12:30:23.960Z,43.50
2022-12-14T12:32:49.925Z,40.07
2022-12-14T12:35:15.661Z,42.23
2022-12-14T12:37:42.508Z,40.43
2022-12-14T12:40:04.869Z,39.03
2022-12-14T12:42:27.640Z,37.77
2022-12-14T12:44:51.763Z,41.73
2022-12-14T12:47:30.250Z,38.97
2022-12-14T12:49:53.714Z,42.27
2022-12-14T12:52:18.529Z,43.37
2022-12-14T12:54:43.033Z,43.70
2022-12-14T12:57:05.919Z,45.53
2022-12-14T12:59:33.805Z,45.53
2022-12-14T13:01:56.411Z,49.67
2022-12-14T13:04:24.495Z,48.07
2022-12-14T13:06:49.972Z,51.83
2022-12-14T13:09:16.595Z,51.73
2022-12-14T13:11:40.419Z,47.97
2022-12-14T13:14:04.344Z,49.80
2022-12-14T13:16:28.299Z,45.67
2022-12-14T13:19:08.932Z,46.70
2022-12-14T13:21:34.723Z,55.23
2022-12-14T13:23:56.215Z,54.87
2022-12-14T13:26:56.103Z,56.70
2022-12-14T13:29:10.769Z,56.03
2022-12-14T13:31:36.868Z,56.20
2022-12-14T13:34:05.458Z,53.70
2022-12-14T13:36:52.333Z,58.30
2022-12-14T13:39:28.850Z,61.80
2022-12-14T13:41:52.610Z,56.27
2022-12-14T13:44:38.594Z,68.53
2022-12-14T13:47:07.025Z,66.47
2022-12-14T13:49:29.595Z,77.40
2022-12-14T13:51:51.728Z,184.97
2022-12-14T13:54:19.724Z,69.37
2022-12-14T13:56:40.913Z,66.83
2022-12-14T13:59:03.313Z,64.90
2022-12-14T14:01:39.580Z,67.23
2022-12-14T14:04:15.641Z,64.87
2022-12-14T14:06:39.687Z,60.50
2022-12-14T14:09:03.321Z,58.30
2022-12-14T14:11:43.283Z,62.00
2022-12-14T14:14:11.174Z,55.17
2022-12-14T14:16:34.582Z,51.10
2022-12-14T14:18:59.290Z,55.10
2022-12-14T14:21:29.920Z,62.13
2022-12-14T14:23:57.687Z,49.53
2022-12-14T14:26:21.220Z,54.57
2022-12-14T14:28:42.389Z,63.23
2022-12-14T14:31:05.116Z,52.40
2022-12-14T14:33:48.570Z,62.73
2022-12-14T14:36:12.025Z,61.43
2022-12-14T14:38:33.377Z,54.67
2022-12-14T14:43:40.188Z,50.97
2022-12-14T14:46:03.113Z,49.63
2022-12-14T14:48:29.259Z,47.57
2022-12-14T14:50:51.254Z,49.27
2022-12-14T14:53:14.275Z,53.73
2022-12-14T14:56:00.586Z,56.63
2022-12-14T14:58:34.002Z,55.97
2022-12-14T15:00:59.262Z,57.47
2022-12-14T15:03:23.108Z,54.37
2022-12-14T15:05:44.866Z,62.20
2022-12-14T15:08:06.494Z,52.37
2022-12-14T15:10:32.127Z,51.90
2022-12-14T15:12:54.625Z,57.67
2022-12-14T15:15:19.242Z,63.17
2022-12-14T15:17:40.565Z,59.50
2022-12-14T15:20:02.698Z,53.37
2022-12-14T15:22:24.460Z,57.37
2022-12-14T15:24:46.624Z,56.47
2022-12-14T15:27:12.731Z,68.27
2022-12-14T15:29:34.195Z,59.60
2022-12-14T15:32:00.575Z,55.57
2022-12-14T15:34:22.193Z,57.27
2022-12-14T15:36:44.173Z,53.43
2022-12-14T15:39:05.910Z,53.53
2022-12-14T15:41:28.801Z,50.83
2022-12-14T15:43:53.717Z,51.37
2022-12-14T15:46:18.964Z,51.40
2022-12-14T15:48:41.331Z,47.73
2022-12-14T15:51:03.959Z,42.63
2022-12-14T15:53:29.068Z,48.00
2022-12-14T15:55:59.837Z,40.53
2022-12-14T15:58:28.337Z,47.10
2022-12-14T16:00:51.597Z,43.57
2022-12-14T16:03:17.065Z,39.07
2022-12-14T16:05:39.671Z,43.33
2022-12-14T16:08:01.142Z,43.07
2022-12-14T16:10:24.460Z,40.20
2022-12-14T16:12:46.512Z,50.73
2022-12-14T16:15:10.316Z,40.87
2022-12-14T16:17:33.843Z,131.07
2022-12-14T16:20:00.222Z,62.07
2022-12-14T16:22:24.428Z,67.80
2022-12-14T16:24:59.061Z,55.37
2022-12-14T16:27:20.941Z,46.87
2022-12-14T16:29:48.050Z,47.20
2022-12-14T16:32:15.535Z,47.27
2022-12-14T16:34:36.776Z,46.83
2022-12-14T16:37:31.083Z,50.73
2022-12-14T16:39:46.364Z,46.97
2022-12-14T16:42:17.863Z,45.10
2022-12-14T16:44:40.118Z,46.33
2022-12-14T16:47:08.446Z,42.70
2022-12-14T16:49:31.865Z,43.83
2022-12-14T16:52:07.435Z,46.53
2022-12-14T16:54:30.348Z,45.60
2022-12-14T16:56:56.571Z,46.27
2022-12-14T16:59:21.412Z,46.00
2022-12-14T17:01:44.571Z,49.30
2022-12-14T17:04:06.919Z,48.53
2022-12-14T17:06:33.769Z,48.40
2022-12-14T17:08:55.140Z,45.43
2022-12-14T17:11:16.528Z,44.33
2022-12-14T17:13:39.333Z,43.93
2022-12-14T17:16:01.796Z,42.97
2022-12-14T17:18:23.725Z,45.30
2022-12-14T17:20:45.165Z,45.63
2022-12-14T17:23:08.486Z,43.83
2022-12-14T17:25:30.908Z,43.60
2022-12-14T17:27:51.893Z,46.13
2022-12-14T17:30:16.586Z,43.90
2022-12-14T17:32:38.095Z,43.93
2022-12-14T17:34:59.832Z,43.67
2022-12-14T17:37:22.269Z,43.10
2022-12-14T17:39:43.526Z,39.73
2022-12-14T17:42:06.504Z,44.73
2022-12-14T17:44:27.460Z,39.80
2022-12-14T17:46:50.111Z,42.53
2022-12-14T17:49:12.739Z,40.13
2022-12-14T17:51:39.852Z,39.17
2022-12-14T17:54:01.377Z,37.87
2022-12-14T17:56:22.934Z,41.10
2022-12-14T17:58:45.375Z,38.10
2022-12-14T18:01:07.552Z,39.07
2022-12-14T18:03:31.100Z,41.80
2022-12-14T18:05:53.133Z,40.43
2022-12-14T18:08:13.980Z,37.97
2022-12-14T18:10:36.773Z,44.00
2022-12-14T18:12:58.438Z,40.30
2022-12-14T18:15:21.028Z,38.93
2022-12-14T18:17:42.261Z,38.33
2022-12-14T18:20:05.192Z,39.73
2022-12-14T18:22:26.250Z,43.23
2022-12-14T18:24:49.299Z,40.00
2022-12-14T18:27:10.492Z,38.93
2022-12-14T18:29:31.597Z,37.97
2022-12-14T18:31:53.307Z,45.13
2022-12-14T18:34:14.743Z,45.00
2022-12-14T18:36:37.320Z,38.53
2022-12-14T18:38:58.781Z,39.00
2022-12-14T18:41:20.880Z,38.10
2022-12-14T18:43:44.102Z,40.57
2022-12-14T18:46:06.037Z,41.77
2022-12-14T18:48:27.459Z,45.87
2022-12-14T18:50:49.904Z,41.97
2022-12-14T18:53:14.952Z,41.50
2022-12-14T18:55:36.360Z,38.07
2022-12-14T18:57:58.322Z,41.13
2022-12-14T19:00:21.012Z,41.83
2022-12-14T19:02:43.073Z,39.67
2022-12-14T19:05:04.427Z,42.40
2022-12-14T19:07:25.369Z,46.27
2022-12-14T19:09:48.001Z,42.63
2022-12-14T19:12:10.918Z,41.30
2022-12-14T19:14:32.008Z,45.87
2022-12-14T19:16:53.166Z,45.60
2022-12-14T19:19:14.522Z,44.70
2022-12-14T19:21:35.767Z,41.33
2022-12-14T19:23:57.340Z,39.73
2022-12-14T19:26:21.069Z,43.60
2022-12-14T19:28:42.289Z,50.23
2022-12-14T19:31:04.308Z,44.57
2022-12-14T19:33:26.859Z,43.43
2022-12-14T19:35:49.211Z,42.90
2022-12-14T19:38:12.770Z,45.17
2022-12-14T19:40:34.468Z,43.07
2022-12-14T19:42:56.963Z,44.10
2022-12-14T19:45:17.973Z,40.13
2022-12-14T19:47:39.004Z,39.53
2022-12-14T19:50:00.995Z,41.10
2022-12-14T19:52:22.110Z,40.20
2022-12-14T19:54:43.222Z,43.00
2022-12-14T19:57:04.471Z,43.87
2022-12-14T19:59:27.180Z,41.33
2022-12-14T20:01:48.923Z,42.40
2022-12-14T20:04:10.299Z,45.87
2022-12-14T20:06:31.698Z,42.77
2022-12-14T20:08:52.972Z,43.83
2022-12-14T20:11:14.145Z,40.63
2022-12-14T20:13:35.606Z,42.63
2022-12-14T20:15:59.280Z,40.27
2022-12-14T20:18:20.917Z,42.00
2022-12-14T20:20:41.805Z,40.30
2022-12-14T20:23:03.040Z,39.67
2022-12-14T20:25:24.834Z,40.23
2022-12-14T20:27:46.569Z,36.10
2022-12-14T20:30:08.555Z,38.03
2022-12-14T20:32:30.915Z,35.97
2022-12-14T20:34:51.831Z,38.23
2022-12-14T20:37:13.208Z,37.90
2022-12-14T20:39:34.625Z,40.93
2022-12-14T20:41:56.015Z,34.47
2022-12-14T20:44:17.236Z,35.43
2022-12-14T20:46:39.619Z,39.10
2022-12-14T20:49:02.646Z,41.17
2022-12-14T20:51:23.848Z,37.17
2022-12-14T20:53:45.298Z,35.47
2022-12-14T20:56:10.728Z,37.97
2022-12-14T20:58:32.111Z,37.80
2022-12-14T21:00:53.359Z,35.13
2022-12-14T21:03:14.758Z,37.90
2022-12-14T21:05:41.734Z,37.30
2022-12-14T21:08:03.079Z,38.07
2022-12-14T21:10:24.450Z,37.17
2022-12-14T21:12:47.258Z,37.47
2022-12-14T21:15:08.925Z,37.47
2022-12-14T21:17:30.951Z,37.07
2022-12-14T21:19:52.307Z,38.00
2022-12-14T21:22:16.114Z,35.77
2022-12-14T21:25:01.799Z,38.23
2022-12-14T21:27:20.014Z,33.57
2022-12-14T21:29:41.222Z,37.27
2022-12-14T21:32:04.265Z,33.57
2022-12-14T21:34:25.599Z,36.40
2022-12-14T21:36:47.589Z,37.03
2022-12-14T21:39:11.128Z,35.93
2022-12-14T21:42:01.219Z,34.47
2022-12-14T21:44:22.452Z,34.70
2022-12-14T21:46:43.749Z,34.97
2022-12-14T21:49:06.455Z,35.07
2022-12-14T21:51:28.921Z,32.83
2022-12-14T21:53:59.575Z,34.47
2022-12-14T21:56:39.410Z,32.13
2022-12-14T21:59:00.687Z,34.17
2022-12-14T22:01:22.175Z,32.50
2022-12-14T22:03:43.621Z,34.60
2022-12-14T22:06:05.374Z,35.23
2022-12-14T22:08:26.499Z,36.77
2022-12-14T22:10:47.833Z,35.50
2022-12-14T22:13:10.625Z,38.67
2022-12-14T22:15:31.875Z,36.30
2022-12-14T22:17:53.094Z,34.00
2022-12-14T22:20:14.375Z,37.20
2022-12-14T22:22:35.704Z,35.80
2022-12-14T22:24:57.032Z,38.03
2022-12-14T22:27:18.423Z,36.47
2022-12-14T22:29:41.183Z,35.50
2022-12-14T22:32:02.627Z,32.33
2022-12-14T22:34:24.430Z,35.30
2022-12-14T22:36:45.900Z,34.03
2022-12-14T22:39:07.181Z,34.37
2022-12-14T22:41:28.712Z,37.47
2022-12-14T22:43:50.102Z,33.67
2022-12-14T22:46:13.003Z,35.73
2022-12-14T22:48:34.914Z,37.97
2022-12-14T22:50:59.957Z,56.03
2022-12-14T22:53:21.146Z,44.97
2022-12-14T22:55:42.874Z,43.60
2022-12-14T22:58:11.914Z,37.37
2022-12-14T23:00:34.221Z,41.10
2022-12-14T23:02:56.622Z,33.17
2022-12-14T23:05:18.320Z,33.77
2022-12-14T23:07:39.604Z,33.40
2022-12-14T23:10:18.237Z,35.97
2022-12-14T23:12:57.143Z,38.60
2022-12-14T23:15:36.056Z,33.47
2022-12-14T23:18:20.848Z,32.83
2022-12-14T23:20:59.518Z,34.67
2022-12-14T23:23:38.620Z,34.37
2022-12-14T23:26:20.287Z,34.67
2022-12-14T23:28:59.155Z,34.00
2022-12-14T23:31:38.204Z,34.27
2022-12-14T23:34:18.151Z,35.07
2022-12-14T23:36:57.294Z,34.07
2022-12-14T23:39:36.565Z,33.93
2022-12-14T23:42:15.480Z,33.67
2022-12-14T23:44:54.370Z,35.23
2022-12-14T23:47:33.118Z,33.37
2022-12-14T23:50:13.193Z,33.67
2022-12-14T23:52:52.396Z,33.13
2022-12-14T23:55:31.334Z,33.03
2022-12-14T23:58:10.211Z,33.70
